Terminal Aerodrome Forecast
Issued by NWS

Home | Current Version | Previous Version | Text Only | Print | Product List | Glossary Off
Versions: 1 2 3 4 5 6 7 8 9 10 11 12 13 14 15 16 17 18 19 20 21 22 23 24 25 26 27 28 29 30

145
FTUS43 KLOT 261138
TAFDPA
TAF
KDPA 261138Z 2612/2712 07006KT 2SM -RADZ BR OVC003
      TEMPO 2612/2614 1SM -RADZ BR OVC002
     FM261500 12008KT 3SM -RADZ BR OVC005
     FM261900 20007KT 5SM BR VCSH BKN015 OVC024
     FM270400 25005KT 5SM BR OVC009
     FM270900 31005KT 3SM BR SCT004 OVC007=

USA.gov is the U.S. government's official web portal to all federal, state and local government web resources and services.